APL New Jersey — A8NM6 — position and weather

sailwx.info

Track history (hours):
 
Tides and Currents Weather Stations Pressure Air Temp Water Temp Dewpoint Dewpoint Depression Visibility Wind Speed Wind Dir Waves Ship Positions

APL New Jersey

Last reported at 2016-Apr-30 18:25 UTC. Time now 2016-May-01 00:28 UTC.
Position N 38°27' W 124°13'.

Length 293 m; draft 11.5 m.

Type: Cargo ship. MMSI: 636013522.

Date/timePositionNaut miles runAvg speedWind from/ knotsBaromVisibWave heightAir tempDewpointWater temp
2016-Apr-30 18:25N 38°27' W 124°13'1314.9
2016-Apr-30 17:33N 38°22' W 123°58'1615.5
2016-Apr-30 16:33N 38°17' W 123°39'1615.9
2016-Apr-30 15:33N 38°09' W 123°21'1515.3
2016-Apr-30 14:33N 37°58' W 123°08'1616.2
2016-Apr-30 13:33N 37°51' W 122°50'1110.5
2016-Apr-30 12:33N 37°46' W 122°38'1212.4
2016-Apr-30 11:33N 37°48' W 122°23'3 2.7
2016-Apr-30 10:32N 37°48' W 122°19'0 0.0
2016-Apr-30 09:29N 37°48' W 122°19'0 0.0
2016-Apr-30 08:32N 37°48' W 122°19'0 0.0
2016-Apr-30 07:32N 37°48' W 122°19'0 0.0
2016-Apr-30 06:32N 37°48' W 122°19'0 0.0
2016-Apr-30 05:32N 37°48' W 122°19'0 0.0
2016-Apr-30 04:32N 37°48' W 122°19'0 0.0
2016-Apr-30 03:32N 37°48' W 122°19'0 0.0
2016-Apr-30 02:32N 37°48' W 122°19'0 0.0
2016-Apr-30 01:32N 37°48' W 122°19'0 0.0
2016-Apr-30 00:32N 37°48' W 122°19'0 0.0
2016-Apr-29 23:32N 37°48' W 122°19'0 0.0
2016-Apr-29 22:32N 37°48' W 122°19'0 0.0
2016-Apr-29 21:32N 37°48' W 122°19'0 0.0
2016-Apr-29 20:32N 37°48' W 122°19'0 0.0
2016-Apr-29 19:32N 37°48' W 122°19'0 0.0
2016-Apr-29 18:32N 37°48' W 122°19'0 0.0
2016-Apr-29 17:32N 37°48' W 122°19'0 0.0
2016-Apr-29 16:32N 37°48' W 122°19'0 0.0
2016-Apr-29 15:32N 37°48' W 122°19'0 0.0
2016-Apr-29 14:32N 37°48' W 122°19'1 0.5
2016-Apr-29 13:33N 37°48' W 122°19'2 2.2
2016-Apr-29 12:33N 37°48' W 122°21'10 9.7
2016-Apr-29 11:33N 37°47' W 122°33'9 8.5
2016-Apr-29 10:33N 37°40' W 122°40'9 9.4
2016-Apr-29 09:33N 37°31' W 122°40'1312.8
2016-Apr-29 08:33N 37°18' W 122°40'1514.7
2016-Apr-29 07:33N 37°04' W 122°37'1615.2
2016-Apr-29 06:32N 36°49' W 122°30'1515.2
2016-Apr-29 05:33N 36°35' W 122°23'1716.6
2016-Apr-29 04:33N 36°20' W 122°15'1616.2
2016-Apr-29 03:33N 36°05' W 122°07'1716.9
2016-Apr-29 02:33N 35°50' W 121°59'1716.8
2016-Apr-29 01:33N 35°35' W 121°49'1716.9
2016-Apr-29 00:33N 35°21' W 121°37'19014.5
2016-Apr-28 11:30N 33°39' W 118°23'7 7.7
2016-Apr-28 10:33N 33°42' W 118°15'3 3.2
2016-Apr-28 09:33N 33°45' W 118°16'0 0.0
2016-Apr-28 08:32N 33°45' W 118°16'0 0.0
2016-Apr-28 07:32N 33°45' W 118°16'0 0.0
2016-Apr-28 06:32N 33°45' W 118°16'0 0.0
2016-Apr-28 05:32N 33°45' W 118°16'0 0.1
2016-Apr-28 04:32N 33°45' W 118°16'0 0.0
2016-Apr-28 03:32N 33°45' W 118°16'0 0.0
2016-Apr-28 02:32N 33°45' W 118°16'0 0.0
2016-Apr-28 01:32N 33°45' W 118°16'0 0.1
2016-Apr-28 00:32N 33°45' W 118°16'0 0.0
2016-Apr-27 23:32N 33°45' W 118°16'0 0.0
2016-Apr-27 22:32N 33°45' W 118°16'0 0.0
2016-Apr-27 21:29N 33°45' W 118°16'0 0.0
2016-Apr-27 20:32N 33°45' W 118°16'0 0.0
2016-Apr-27 19:32N 33°45' W 118°16'0 0.0
2016-Apr-27 18:32N 33°45' W 118°16'0 0.0
2016-Apr-27 17:29N 33°45' W 118°16'0 0.0
2016-Apr-27 16:32N 33°45' W 118°16'0 0.1
2016-Apr-27 15:32N 33°45' W 118°16'0 0.1
2016-Apr-27 14:32N 33°45' W 118°16'0 0.1
2016-Apr-27 13:32N 33°45' W 118°16'0 0.1
2016-Apr-27 12:32N 33°45' W 118°16'0 0.0
2016-Apr-27 11:32N 33°45' W 118°16'0 0.0
2016-Apr-27 10:32N 33°45' W 118°16'0 0.0
2016-Apr-27 09:32N 33°45' W 118°16'0 0.0
2016-Apr-27 08:32N 33°45' W 118°16'0 0.0
2016-Apr-27 07:32N 33°45' W 118°16'0 0.0
2016-Apr-27 06:32N 33°45' W 118°16'0 0.0
2016-Apr-27 05:32N 33°45' W 118°16'0 0.0
2016-Apr-27 04:32N 33°45' W 118°16'0 0.0
2016-Apr-27 03:32N 33°45' W 118°16'0 0.0
2016-Apr-27 02:32N 33°45' W 118°16'0 0.0
2016-Apr-27 01:32N 33°45' W 118°16'0 0.0
2016-Apr-27 00:32N 33°45' W 118°16'0 0.0
2016-Apr-26 23:32N 33°45' W 118°16'0 0.0
2016-Apr-26 22:32N 33°45' W 118°16'0 0.0
2016-Apr-26 21:32N 33°45' W 118°16'0 0.0
2016-Apr-26 20:32N 33°45' W 118°16'0 0.0
2016-Apr-26 19:32N 33°45' W 118°16'0 0.0
2016-Apr-26 18:32N 33°45' W 118°16'0 0.1
2016-Apr-26 17:32N 33°45' W 118°16'0 0.0
2016-Apr-26 16:32N 33°45' W 118°16'0 0.1
2016-Apr-26 15:32N 33°45' W 118°16'0 0.0
2016-Apr-26 14:32N 33°45' W 118°16'0 0.0
2016-Apr-26 13:32N 33°45' W 118°16'0 0.0
2016-Apr-26 12:32N 33°45' W 118°16'0 0.0
2016-Apr-26 11:32N 33°45' W 118°16'0 0.0
2016-Apr-26 10:32N 33°45' W 118°16'0 0.0
2016-Apr-26 09:32N 33°45' W 118°16'0 0.0
2016-Apr-26 08:32N 33°45' W 118°16'0 0.0
2016-Apr-26 07:32N 33°45' W 118°16'0 0.0
2016-Apr-26 06:32N 33°45' W 118°16'0 0.0
2016-Apr-26 05:29N 33°45' W 118°16'0 0.0
2016-Apr-26 04:29N 33°45' W 118°16'0 0.0
2016-Apr-26 03:32N 33°45' W 118°16'0 0.0
2016-Apr-26 02:32N 33°45' W 118°16'0 0.0
2016-Apr-26 01:32N 33°45' W 118°16'0 0.1
2016-Apr-26 00:32N 33°45' W 118°16'0 0.1
2016-Apr-25 23:32N 33°45' W 118°16'0 0.0
2016-Apr-25 22:29N 33°45' W 118°16'0 0.0
2016-Apr-25 21:32N 33°45' W 118°16'0 0.0
2016-Apr-25 20:32N 33°45' W 118°16'0 0.0
2016-Apr-25 19:32N 33°45' W 118°16'0 0.0
2016-Apr-25 18:32N 33°45' W 118°16'0 0.0
2016-Apr-25 17:29N 33°45' W 118°16'0 0.1
2016-Apr-25 16:32N 33°45' W 118°16'0 0.0
2016-Apr-25 15:29N 33°45' W 118°16'0 0.0
2016-Apr-25 14:32N 33°45' W 118°16'0 0.0
2016-Apr-25 13:32N 33°45' W 118°16'2 2.0
2016-Apr-25 12:33N 33°44' W 118°16'7 6.3
2016-Apr-25 11:30N 33°37' W 118°14'7 6.3
2016-Apr-25 10:26N 33°37' W 118°22'19715.1
2016-Apr-24 21:25N 34°46' W 122°04'7118.1
2016-Apr-24 17:31N 35°12' W 123°25'  
Track history (hours):
 
Tides and Currents Weather Stations Pressure Air Temp Water Temp Dewpoint Dewpoint Depression Visibility Wind Speed Wind Dir Waves Ship Positions

APL New Jersey

Last reported at 2016-Apr-30 18:25 UTC. Time now 2016-May-01 00:28 UTC.
Position N 38°27' W 124°13'.

Length 293 m; draft 11.5 m.

Type: Cargo ship. MMSI: 636013522.

Date/timePositionNaut miles runAvg speedWind from/ knotsBaromVisibWave heightAir tempDewpointWater temp
2016-Apr-30 18:25N 38°27' W 124°13'1314.9
2016-Apr-30 17:33N 38°22' W 123°58'1615.5
2016-Apr-30 16:33N 38°17' W 123°39'1615.9
2016-Apr-30 15:33N 38°09' W 123°21'1515.3
2016-Apr-30 14:33N 37°58' W 123°08'1616.2
2016-Apr-30 13:33N 37°51' W 122°50'1110.5
2016-Apr-30 12:33N 37°46' W 122°38'1212.4
2016-Apr-30 11:33N 37°48' W 122°23'3 2.7
2016-Apr-30 10:32N 37°48' W 122°19'0 0.0
2016-Apr-30 09:29N 37°48' W 122°19'0 0.0
2016-Apr-30 08:32N 37°48' W 122°19'0 0.0
2016-Apr-30 07:32N 37°48' W 122°19'0 0.0
2016-Apr-30 06:32N 37°48' W 122°19'0 0.0
2016-Apr-30 05:32N 37°48' W 122°19'0 0.0
2016-Apr-30 04:32N 37°48' W 122°19'0 0.0
2016-Apr-30 03:32N 37°48' W 122°19'0 0.0
2016-Apr-30 02:32N 37°48' W 122°19'0 0.0
2016-Apr-30 01:32N 37°48' W 122°19'0 0.0
2016-Apr-30 00:32N 37°48' W 122°19'0 0.0
2016-Apr-29 23:32N 37°48' W 122°19'0 0.0
2016-Apr-29 22:32N 37°48' W 122°19'0 0.0
2016-Apr-29 21:32N 37°48' W 122°19'0 0.0
2016-Apr-29 20:32N 37°48' W 122°19'0 0.0
2016-Apr-29 19:32N 37°48' W 122°19'0 0.0
2016-Apr-29 18:32N 37°48' W 122°19'0 0.0
2016-Apr-29 17:32N 37°48' W 122°19'0 0.0
2016-Apr-29 16:32N 37°48' W 122°19'0 0.0
2016-Apr-29 15:32N 37°48' W 122°19'0 0.0
2016-Apr-29 14:32N 37°48' W 122°19'1 0.5
2016-Apr-29 13:33N 37°48' W 122°19'2 2.2
2016-Apr-29 12:33N 37°48' W 122°21'10 9.7
2016-Apr-29 11:33N 37°47' W 122°33'9 8.5
2016-Apr-29 10:33N 37°40' W 122°40'9 9.4
2016-Apr-29 09:33N 37°31' W 122°40'1312.8
2016-Apr-29 08:33N 37°18' W 122°40'1514.7
2016-Apr-29 07:33N 37°04' W 122°37'1615.2
2016-Apr-29 06:32N 36°49' W 122°30'1515.2
2016-Apr-29 05:33N 36°35' W 122°23'1716.6
2016-Apr-29 04:33N 36°20' W 122°15'1616.2
2016-Apr-29 03:33N 36°05' W 122°07'1716.9
2016-Apr-29 02:33N 35°50' W 121°59'1716.8
2016-Apr-29 01:33N 35°35' W 121°49'1716.9
2016-Apr-29 00:33N 35°21' W 121°37'19014.5
2016-Apr-28 11:30N 33°39' W 118°23'7 7.7
2016-Apr-28 10:33N 33°42' W 118°15'3 3.2
2016-Apr-28 09:33N 33°45' W 118°16'0 0.0
2016-Apr-28 08:32N 33°45' W 118°16'0 0.0
2016-Apr-28 07:32N 33°45' W 118°16'0 0.0
2016-Apr-28 06:32N 33°45' W 118°16'0 0.0
2016-Apr-28 05:32N 33°45' W 118°16'0 0.1
2016-Apr-28 04:32N 33°45' W 118°16'0 0.0
2016-Apr-28 03:32N 33°45' W 118°16'0 0.0
2016-Apr-28 02:32N 33°45' W 118°16'0 0.0
2016-Apr-28 01:32N 33°45' W 118°16'0 0.1
2016-Apr-28 00:32N 33°45' W 118°16'0 0.0
2016-Apr-27 23:32N 33°45' W 118°16'0 0.0
2016-Apr-27 22:32N 33°45' W 118°16'0 0.0
2016-Apr-27 21:29N 33°45' W 118°16'0 0.0
2016-Apr-27 20:32N 33°45' W 118°16'0 0.0
2016-Apr-27 19:32N 33°45' W 118°16'0 0.0
2016-Apr-27 18:32N 33°45' W 118°16'0 0.0
2016-Apr-27 17:29N 33°45' W 118°16'0 0.0
2016-Apr-27 16:32N 33°45' W 118°16'0 0.1
2016-Apr-27 15:32N 33°45' W 118°16'0 0.1
2016-Apr-27 14:32N 33°45' W 118°16'0 0.1
2016-Apr-27 13:32N 33°45' W 118°16'0 0.1
2016-Apr-27 12:32N 33°45' W 118°16'0 0.0
2016-Apr-27 11:32N 33°45' W 118°16'0 0.0
2016-Apr-27 10:32N 33°45' W 118°16'0 0.0
2016-Apr-27 09:32N 33°45' W 118°16'0 0.0
2016-Apr-27 08:32N 33°45' W 118°16'0 0.0
2016-Apr-27 07:32N 33°45' W 118°16'0 0.0
2016-Apr-27 06:32N 33°45' W 118°16'0 0.0
2016-Apr-27 05:32N 33°45' W 118°16'0 0.0
2016-Apr-27 04:32N 33°45' W 118°16'0 0.0
2016-Apr-27 03:32N 33°45' W 118°16'0 0.0
2016-Apr-27 02:32N 33°45' W 118°16'0 0.0
2016-Apr-27 01:32N 33°45' W 118°16'0 0.0
2016-Apr-27 00:32N 33°45' W 118°16'0 0.0
2016-Apr-26 23:32N 33°45' W 118°16'0 0.0
2016-Apr-26 22:32N 33°45' W 118°16'0 0.0
2016-Apr-26 21:32N 33°45' W 118°16'0 0.0
2016-Apr-26 20:32N 33°45' W 118°16'0 0.0
2016-Apr-26 19:32N 33°45' W 118°16'0 0.0
2016-Apr-26 18:32N 33°45' W 118°16'0 0.1
2016-Apr-26 17:32N 33°45' W 118°16'0 0.0
2016-Apr-26 16:32N 33°45' W 118°16'0 0.1
2016-Apr-26 15:32N 33°45' W 118°16'0 0.0
2016-Apr-26 14:32N 33°45' W 118°16'0 0.0
2016-Apr-26 13:32N 33°45' W 118°16'0 0.0
2016-Apr-26 12:32N 33°45' W 118°16'0 0.0
2016-Apr-26 11:32N 33°45' W 118°16'0 0.0
2016-Apr-26 10:32N 33°45' W 118°16'0 0.0
2016-Apr-26 09:32N 33°45' W 118°16'0 0.0
2016-Apr-26 08:32N 33°45' W 118°16'0 0.0
2016-Apr-26 07:32N 33°45' W 118°16'0 0.0
2016-Apr-26 06:32N 33°45' W 118°16'0 0.0
2016-Apr-26 05:29N 33°45' W 118°16'0 0.0
2016-Apr-26 04:29N 33°45' W 118°16'0 0.0
2016-Apr-26 03:32N 33°45' W 118°16'0 0.0
2016-Apr-26 02:32N 33°45' W 118°16'0 0.0
2016-Apr-26 01:32N 33°45' W 118°16'0 0.1
2016-Apr-26 00:32N 33°45' W 118°16'0 0.1
2016-Apr-25 23:32N 33°45' W 118°16'0 0.0
2016-Apr-25 22:29N 33°45' W 118°16'0 0.0
2016-Apr-25 21:32N 33°45' W 118°16'0 0.0
2016-Apr-25 20:32N 33°45' W 118°16'0 0.0
2016-Apr-25 19:32N 33°45' W 118°16'0 0.0
2016-Apr-25 18:32N 33°45' W 118°16'0 0.0
2016-Apr-25 17:29N 33°45' W 118°16'0 0.1
2016-Apr-25 16:32N 33°45' W 118°16'0 0.0
2016-Apr-25 15:29N 33°45' W 118°16'0 0.0
2016-Apr-25 14:32N 33°45' W 118°16'0 0.0
2016-Apr-25 13:32N 33°45' W 118°16'2 2.0
2016-Apr-25 12:33N 33°44' W 118°16'7 6.3
2016-Apr-25 11:30N 33°37' W 118°14'7 6.3
2016-Apr-25 10:26N 33°37' W 118°22'19715.1
2016-Apr-24 21:25N 34°46' W 122°04'7118.1
2016-Apr-24 17:31N 35°12' W 123°25'  

Dump ship's entire track history